sensor_id;sensor_type;location;lat;lon;timestamp;temperature;humidity
68109;SHT30;54893;49.864;19.084;2024-02-26T00:02:56;4.24;87.57
68109;SHT30;54893;49.864;19.084;2024-02-26T00:07:57;4.20;86.61
68109;SHT30;54893;49.864;19.084;2024-02-26T00:12:57;4.36;87.40
68109;SHT30;54893;49.864;19.084;2024-02-26T00:17:57;4.28;86.09
68109;SHT30;54893;49.864;19.084;2024-02-26T00:22:58;4.22;86.26
68109;SHT30;54893;49.864;19.084;2024-02-26T00:27:58;4.34;86.51
68109;SHT30;54893;49.864;19.084;2024-02-26T00:32:59;4.55;85.59
68109;SHT30;54893;49.864;19.084;2024-02-26T00:37:59;4.67;85.11
68109;SHT30;54893;49.864;19.084;2024-02-26T00:43:01;4.68;85.92
68109;SHT30;54893;49.864;19.084;2024-02-26T00:48:01;4.76;85.44
68109;SHT30;54893;49.864;19.084;2024-02-26T00:53:05;4.92;85.39
68109;SHT30;54893;49.864;19.084;2024-02-26T00:58:05;4.34;86.55
68109;SHT30;54893;49.864;19.084;2024-02-26T01:03:06;4.16;86.81
68109;SHT30;54893;49.864;19.084;2024-02-26T01:08:06;3.83;88.26
68109;SHT30;54893;49.864;19.084;2024-02-26T01:13:07;3.67;88.74
68109;SHT30;54893;49.864;19.084;2024-02-26T01:18:08;3.50;91.30
68109;SHT30;54893;49.864;19.084;2024-02-26T01:23:08;3.48;91.15
68109;SHT30;54893;49.864;19.084;2024-02-26T01:28:08;3.60;89.15
68109;SHT30;54893;49.864;19.084;2024-02-26T01:33:09;3.82;89.06
68109;SHT30;54893;49.864;19.084;2024-02-26T01:38:09;3.95;89.25
68109;SHT30;54893;49.864;19.084;2024-02-26T01:43:09;3.77;88.74
68109;SHT30;54893;49.864;19.084;2024-02-26T01:48:10;4.30;88.49
68109;SHT30;54893;49.864;19.084;2024-02-26T01:53:10;4.18;88.87
68109;SHT30;54893;49.864;19.084;2024-02-26T01:58:11;4.22;88.83
68109;SHT30;54893;49.864;19.084;2024-02-26T02:03:13;4.17;87.68
68109;SHT30;54893;49.864;19.084;2024-02-26T02:08:14;4.11;87.64
68109;SHT30;54893;49.864;19.084;2024-02-26T02:13:14;4.01;90.00
68109;SHT30;54893;49.864;19.084;2024-02-26T02:18:15;3.36;90.12
68109;SHT30;54893;49.864;19.084;2024-02-26T02:23:15;3.05;90.93
68109;SHT30;54893;49.864;19.084;2024-02-26T02:28:15;2.98;91.03
68109;SHT30;54893;49.864;19.084;2024-02-26T02:33:16;3.06;90.28
68109;SHT30;54893;49.864;19.084;2024-02-26T02:38:17;3.13;89.43
68109;SHT30;54893;49.864;19.084;2024-02-26T02:43:17;3.32;89.98
68109;SHT30;54893;49.864;19.084;2024-02-26T02:48:18;3.93;89.66
68109;SHT30;54893;49.864;19.084;2024-02-26T02:53:18;4.13;86.75
68109;SHT30;54893;49.864;19.084;2024-02-26T02:58:19;4.03;86.32
68109;SHT30;54893;49.864;19.084;2024-02-26T03:03:19;4.01;87.63
68109;SHT30;54893;49.864;19.084;2024-02-26T03:08:19;4.00;90.23
68109;SHT30;54893;49.864;19.084;2024-02-26T03:13:20;3.72;88.86
68109;SHT30;54893;49.864;19.084;2024-02-26T03:18:20;3.50;89.50
68109;SHT30;54893;49.864;19.084;2024-02-26T03:23:21;3.56;88.31
68109;SHT30;54893;49.864;19.084;2024-02-26T03:28:22;3.38;90.05
68109;SHT30;54893;49.864;19.084;2024-02-26T03:33:22;3.11;90.69
68109;SHT30;54893;49.864;19.084;2024-02-26T03:38:23;3.04;90.48
68109;SHT30;54893;49.864;19.084;2024-02-26T03:43:23;3.09;92.81
68109;SHT30;54893;49.864;19.084;2024-02-26T03:48:24;3.05;91.42
68109;SHT30;54893;49.864;19.084;2024-02-26T03:53:24;2.88;89.94
68109;SHT30;54893;49.864;19.084;2024-02-26T03:58:24;2.71;91.93
68109;SHT30;54893;49.864;19.084;2024-02-26T04:03:25;2.64;91.12
68109;SHT30;54893;49.864;19.084;2024-02-26T04:08:26;2.68;91.99
68109;SHT30;54893;49.864;19.084;2024-02-26T04:13:26;2.68;91.77
68109;SHT30;54893;49.864;19.084;2024-02-26T04:18:27;2.70;92.18
68109;SHT30;54893;49.864;19.084;2024-02-26T04:23:28;2.82;90.43
68109;SHT30;54893;49.864;19.084;2024-02-26T04:28:29;3.06;91.95
68109;SHT30;54893;49.864;19.084;2024-02-26T04:33:29;2.92;91.76
68109;SHT30;54893;49.864;19.084;2024-02-26T04:38:30;3.32;89.17
68109;SHT30;54893;49.864;19.084;2024-02-26T04:43:30;3.28;91.08
68109;SHT30;54893;49.864;19.084;2024-02-26T04:48:31;3.36;88.83
68109;SHT30;54893;49.864;19.084;2024-02-26T04:53:31;3.35;88.79
68109;SHT30;54893;49.864;19.084;2024-02-26T04:58:31;3.72;91.77
68109;SHT30;54893;49.864;19.084;2024-02-26T05:03:32;3.77;91.14
68109;SHT30;54893;49.864;19.084;2024-02-26T05:08:32;3.53;89.94
68109;SHT30;54893;49.864;19.084;2024-02-26T05:13:33;4.03;88.82
68109;SHT30;54893;49.864;19.084;2024-02-26T05:18:34;3.62;90.26
68109;SHT30;54893;49.864;19.084;2024-02-26T05:23:34;3.33;90.69
68109;SHT30;54893;49.864;19.084;2024-02-26T05:28:35;3.38;89.32
68109;SHT30;54893;49.864;19.084;2024-02-26T05:33:36;3.09;90.21
68109;SHT30;54893;49.864;19.084;2024-02-26T05:38:36;3.09;91.32
68109;SHT30;54893;49.864;19.084;2024-02-26T05:43:36;3.36;90.04
68109;SHT30;54893;49.864;19.084;2024-02-26T05:48:37;3.26;90.32
68109;SHT30;54893;49.864;19.084;2024-02-26T05:53:37;3.67;90.09
68109;SHT30;54893;49.864;19.084;2024-02-26T05:58:38;3.77;89.57
68109;SHT30;54893;49.864;19.084;2024-02-26T06:03:38;3.93;90.58
68109;SHT30;54893;49.864;19.084;2024-02-26T06:08:39;4.41;88.73
68109;SHT30;54893;49.864;19.084;2024-02-26T06:13:40;4.71;88.83
68109;SHT30;54893;49.864;19.084;2024-02-26T06:18:41;4.96;88.33
68109;SHT30;54893;49.864;19.084;2024-02-26T06:23:42;5.29;88.31
68109;SHT30;54893;49.864;19.084;2024-02-26T06:28:42;5.77;87.29
68109;SHT30;54893;49.864;19.084;2024-02-26T06:33:42;6.20;86.75
68109;SHT30;54893;49.864;19.084;2024-02-26T06:38:43;6.49;86.25
68109;SHT30;54893;49.864;19.084;2024-02-26T06:43:43;6.69;85.93
68109;SHT30;54893;49.864;19.084;2024-02-26T06:48:44;6.62;86.23
68109;SHT30;54893;49.864;19.084;2024-02-26T06:53:44;7.20;86.26
68109;SHT30;54893;49.864;19.084;2024-02-26T06:58:44;7.85;84.76
68109;SHT30;54893;49.864;19.084;2024-02-26T07:03:45;8.46;82.47
68109;SHT30;54893;49.864;19.084;2024-02-26T07:08:45;8.39;83.79
68109;SHT30;54893;49.864;19.084;2024-02-26T07:13:46;8.48;83.66
68109;SHT30;54893;49.864;19.084;2024-02-26T07:18:47;8.48;83.24
68109;SHT30;54893;49.864;19.084;2024-02-26T07:23:47;8.69;82.22
68109;SHT30;54893;49.864;19.084;2024-02-26T07:28:47;8.65;83.23
68109;SHT30;54893;49.864;19.084;2024-02-26T07:33:48;8.56;83.56
68109;SHT30;54893;49.864;19.084;2024-02-26T07:38:48;8.63;82.72
68109;SHT30;54893;49.864;19.084;2024-02-26T07:43:48;8.92;83.18
68109;SHT30;54893;49.864;19.084;2024-02-26T07:48:49;8.90;82.09
68109;SHT30;54893;49.864;19.084;2024-02-26T07:53:49;8.94;83.41
68109;SHT30;54893;49.864;19.084;2024-02-26T07:58:50;8.92;82.74
68109;SHT30;54893;49.864;19.084;2024-02-26T08:03:50;9.16;83.07
68109;SHT30;54893;49.864;19.084;2024-02-26T08:08:51;9.40;82.83
68109;SHT30;54893;49.864;19.084;2024-02-26T08:13:51;9.48;82.75
68109;SHT30;54893;49.864;19.084;2024-02-26T08:18:52;9.91;82.57
68109;SHT30;54893;49.864;19.084;2024-02-26T08:23:52;9.85;82.36
68109;SHT30;54893;49.864;19.084;2024-02-26T08:28:53;9.58;81.37
68109;SHT30;54893;49.864;19.084;2024-02-26T08:33:55;10.12;82.09
68109;SHT30;54893;49.864;19.084;2024-02-26T08:38:56;10.39;81.63
68109;SHT30;54893;49.864;19.084;2024-02-26T08:43:56;10.55;81.56
68109;SHT30;54893;49.864;19.084;2024-02-26T08:48:58;10.62;81.60
68109;SHT30;54893;49.864;19.084;2024-02-26T08:53:59;10.45;81.41
68109;SHT30;54893;49.864;19.084;2024-02-26T08:58:59;9.90;82.80
68109;SHT30;54893;49.864;19.084;2024-02-26T09:04:03;10.02;83.65
68109;SHT30;54893;49.864;19.084;2024-02-26T09:09:04;10.12;83.02
68109;SHT30;54893;49.864;19.084;2024-02-26T09:14:04;10.68;82.17
68109;SHT30;54893;49.864;19.084;2024-02-26T09:19:04;10.92;81.76
68109;SHT30;54893;49.864;19.084;2024-02-26T09:24:05;11.30;80.12
68109;SHT30;54893;49.864;19.084;2024-02-26T09:29:05;11.53;81.56
68109;SHT30;54893;49.864;19.084;2024-02-26T09:34:06;12.46;80.09
68109;SHT30;54893;49.864;19.084;2024-02-26T09:39:06;12.05;79.19
68109;SHT30;54893;49.864;19.084;2024-02-26T09:44:12;12.53;80.28
68109;SHT30;54893;49.864;19.084;2024-02-26T09:49:16;12.82;79.15
68109;SHT30;54893;49.864;19.084;2024-02-26T09:54:16;12.69;78.25
68109;SHT30;54893;49.864;19.084;2024-02-26T09:59:17;12.95;78.26
68109;SHT30;54893;49.864;19.084;2024-02-26T10:04:18;13.33;78.17
68109;SHT30;54893;49.864;19.084;2024-02-26T10:09:19;13.92;77.72
68109;SHT30;54893;49.864;19.084;2024-02-26T10:14:20;14.39;76.28
68109;SHT30;54893;49.864;19.084;2024-02-26T10:19:28;14.42;76.59
68109;SHT30;54893;49.864;19.084;2024-02-26T10:24:30;14.42;75.96
68109;SHT30;54893;49.864;19.084;2024-02-26T10:29:31;14.02;75.69
68109;SHT30;54893;49.864;19.084;2024-02-26T10:34:31;13.87;75.49
68109;SHT30;54893;49.864;19.084;2024-02-26T10:39:31;13.43;77.66
68109;SHT30;54893;49.864;19.084;2024-02-26T10:44:32;12.92;78.23
68109;SHT30;54893;49.864;19.084;2024-02-26T10:49:34;12.36;78.65
68109;SHT30;54893;49.864;19.084;2024-02-26T10:54:35;12.36;79.20
68109;SHT30;54893;49.864;19.084;2024-02-26T10:59:39;12.55;78.58
68109;SHT30;54893;49.864;19.084;2024-02-26T11:04:41;12.41;79.08
68109;SHT30;54893;49.864;19.084;2024-02-26T11:09:43;12.72;78.18
68109;SHT30;54893;49.864;19.084;2024-02-26T11:14:47;12.62;77.78
68109;SHT30;54893;49.864;19.084;2024-02-26T11:19:50;12.58;78.27
68109;SHT30;54893;49.864;19.084;2024-02-26T11:24:52;12.80;78.32
68109;SHT30;54893;49.864;19.084;2024-02-26T11:29:54;12.70;78.82
68109;SHT30;54893;49.864;19.084;2024-02-26T11:34:56;12.35;78.85
68109;SHT30;54893;49.864;19.084;2024-02-26T11:39:59;12.58;78.85
68109;SHT30;54893;49.864;19.084;2024-02-26T11:44:59;12.75;78.04
68109;SHT30;54893;49.864;19.084;2024-02-26T11:50:36;12.80;77.42
68109;SHT30;54893;49.864;19.084;2024-02-26T11:55:36;12.69;77.94
68109;SHT30;54893;49.864;19.084;2024-02-26T12:00:40;12.73;78.04
68109;SHT30;54893;49.864;19.084;2024-02-26T12:05:41;12.86;78.19
68109;SHT30;54893;49.864;19.084;2024-02-26T12:10:42;12.86;77.89
68109;SHT30;54893;49.864;19.084;2024-02-26T12:15:53;13.28;76.81
68109;SHT30;54893;49.864;19.084;2024-02-26T12:21:01;12.95;77.24
68109;SHT30;54893;49.864;19.084;2024-02-26T12:26:02;13.58;77.63
68109;SHT30;54893;49.864;19.084;2024-02-26T12:31:03;13.30;77.53
68109;SHT30;54893;49.864;19.084;2024-02-26T12:36:04;13.30;77.56
68109;SHT30;54893;49.864;19.084;2024-02-26T12:41:06;13.55;77.44
68109;SHT30;54893;49.864;19.084;2024-02-26T12:46:06;13.37;77.41
68109;SHT30;54893;49.864;19.084;2024-02-26T12:51:07;13.34;77.31
68109;SHT30;54893;49.864;19.084;2024-02-26T12:56:08;13.54;77.70
68109;SHT30;54893;49.864;19.084;2024-02-26T13:01:15;13.74;77.34
68109;SHT30;54893;49.864;19.084;2024-02-26T13:06:18;13.98;76.69
68109;SHT30;54893;49.864;19.084;2024-02-26T13:11:19;14.11;76.62
68109;SHT30;54893;49.864;19.084;2024-02-26T13:16:19;14.02;76.76
68109;SHT30;54893;49.864;19.084;2024-02-26T13:21:19;14.01;76.95
68109;SHT30;54893;49.864;19.084;2024-02-26T13:26:22;14.05;76.24
68109;SHT30;54893;49.864;19.084;2024-02-26T13:31:25;14.22;76.01
68109;SHT30;54893;49.864;19.084;2024-02-26T13:36:26;14.46;75.74
68109;SHT30;54893;49.864;19.084;2024-02-26T13:41:27;14.42;75.14
68109;SHT30;54893;49.864;19.084;2024-02-26T13:46:27;14.46;74.61
68109;SHT30;54893;49.864;19.084;2024-02-26T13:51:28;14.61;75.21
68109;SHT30;54893;49.864;19.084;2024-02-26T13:56:35;14.86;74.82
68109;SHT30;54893;49.864;19.084;2024-02-26T14:01:36;14.61;74.64
68109;SHT30;54893;49.864;19.084;2024-02-26T14:06:36;14.45;75.40
68109;SHT30;54893;49.864;19.084;2024-02-26T14:11:37;14.25;75.67
68109;SHT30;54893;49.864;19.084;2024-02-26T14:16:39;13.98;76.33
68109;SHT30;54893;49.864;19.084;2024-02-26T14:21:40;13.94;77.02
68109;SHT30;54893;49.864;19.084;2024-02-26T14:26:40;13.89;76.76
68109;SHT30;54893;49.864;19.084;2024-02-26T14:31:40;14.00;76.23
68109;SHT30;54893;49.864;19.084;2024-02-26T14:36:41;14.04;76.09
68109;SHT30;54893;49.864;19.084;2024-02-26T14:41:41;14.20;75.85
68109;SHT30;54893;49.864;19.084;2024-02-26T14:46:42;13.87;76.26
68109;SHT30;54893;49.864;19.084;2024-02-26T14:51:44;13.68;76.83
68109;SHT30;54893;49.864;19.084;2024-02-26T14:56:44;13.61;76.49
68109;SHT30;54893;49.864;19.084;2024-02-26T15:01:46;13.68;76.39
68109;SHT30;54893;49.864;19.084;2024-02-26T15:06:46;13.61;76.39
68109;SHT30;54893;49.864;19.084;2024-02-26T15:11:46;13.33;77.08
68109;SHT30;54893;49.864;19.084;2024-02-26T15:16:47;13.19;77.31
68109;SHT30;54893;49.864;19.084;2024-02-26T15:21:48;13.04;77.79
68109;SHT30;54893;49.864;19.084;2024-02-26T15:26:49;12.85;77.90
68109;SHT30;54893;49.864;19.084;2024-02-26T15:31:49;12.69;78.11
68109;SHT30;54893;49.864;19.084;2024-02-26T15:36:49;12.53;78.66
68109;SHT30;54893;49.864;19.084;2024-02-26T15:41:50;12.32;79.12
68109;SHT30;54893;49.864;19.084;2024-02-26T15:46:50;12.06;79.45
68109;SHT30;54893;49.864;19.084;2024-02-26T15:51:51;11.85;80.08
68109;SHT30;54893;49.864;19.084;2024-02-26T15:56:51;11.74;80.20
68109;SHT30;54893;49.864;19.084;2024-02-26T16:01:51;11.41;80.64
68109;SHT30;54893;49.864;19.084;2024-02-26T16:06:55;11.22;81.46
68109;SHT30;54893;49.864;19.084;2024-02-26T16:11:57;10.90;81.88
68109;SHT30;54893;49.864;19.084;2024-02-26T16:17:11;10.72;82.11
68109;SHT30;54893;49.864;19.084;2024-02-26T16:22:12;10.49;83.56
68109;SHT30;54893;49.864;19.084;2024-02-26T16:27:14;10.41;83.27
68109;SHT30;54893;49.864;19.084;2024-02-26T16:32:14;10.25;82.40
68109;SHT30;54893;49.864;19.084;2024-02-26T16:37:16;10.45;82.26
68109;SHT30;54893;49.864;19.084;2024-02-26T16:42:17;10.21;83.71
68109;SHT30;54893;49.864;19.084;2024-02-26T16:47:19;10.01;85.42
68109;SHT30;54893;49.864;19.084;2024-02-26T16:52:19;10.12;83.16
68109;SHT30;54893;49.864;19.084;2024-02-26T16:57:20;10.24;83.34
68109;SHT30;54893;49.864;19.084;2024-02-26T17:02:21;10.26;84.91
68109;SHT30;54893;49.864;19.084;2024-02-26T17:07:22;10.32;84.58
68109;SHT30;54893;49.864;19.084;2024-02-26T17:12:22;10.38;84.66
68109;SHT30;54893;49.864;19.084;2024-02-26T17:17:23;10.41;84.78
68109;SHT30;54893;49.864;19.084;2024-02-26T17:22:23;10.29;84.86
68109;SHT30;54893;49.864;19.084;2024-02-26T17:27:25;10.22;85.32
68109;SHT30;54893;49.864;19.084;2024-02-26T17:32:26;10.21;84.86
68109;SHT30;54893;49.864;19.084;2024-02-26T17:37:26;10.12;85.68
68109;SHT30;54893;49.864;19.084;2024-02-26T17:42:27;10.02;85.79
68109;SHT30;54893;49.864;19.084;2024-02-26T17:47:27;9.95;85.78
68109;SHT30;54893;49.864;19.084;2024-02-26T17:52:27;9.90;86.05
68109;SHT30;54893;49.864;19.084;2024-02-26T17:57:28;9.98;84.77
68109;SHT30;54893;49.864;19.084;2024-02-26T18:02:29;9.91;85.16
68109;SHT30;54893;49.864;19.084;2024-02-26T18:07:29;9.99;85.38
68109;SHT30;54893;49.864;19.084;2024-02-26T18:12:29;9.99;85.01
68109;SHT30;54893;49.864;19.084;2024-02-26T18:17:31;9.98;84.71
68109;SHT30;54893;49.864;19.084;2024-02-26T18:22:31;9.91;85.49
68109;SHT30;54893;49.864;19.084;2024-02-26T18:27:31;9.88;85.58
68109;SHT30;54893;49.864;19.084;2024-02-26T18:32:34;9.94;85.24
68109;SHT30;54893;49.864;19.084;2024-02-26T18:37:35;9.98;84.91
68109;SHT30;54893;49.864;19.084;2024-02-26T18:42:35;10.19;84.96
68109;SHT30;54893;49.864;19.084;2024-02-26T18:47:38;10.21;85.40
68109;SHT30;54893;49.864;19.084;2024-02-26T18:52:38;10.28;84.90
68109;SHT30;54893;49.864;19.084;2024-02-26T18:57:39;10.24;84.72
68109;SHT30;54893;49.864;19.084;2024-02-26T19:02:41;10.26;84.41
68109;SHT30;54893;49.864;19.084;2024-02-26T19:07:42;10.25;84.36
68109;SHT30;54893;49.864;19.084;2024-02-26T19:12:42;10.16;84.85
68109;SHT30;54893;49.864;19.084;2024-02-26T19:17:44;9.91;84.94
68109;SHT30;54893;49.864;19.084;2024-02-26T19:22:48;9.67;85.56
68109;SHT30;54893;49.864;19.084;2024-02-26T19:27:49;9.60;85.59
68109;SHT30;54893;49.864;19.084;2024-02-26T19:32:49;9.41;85.89
68109;SHT30;54893;49.864;19.084;2024-02-26T19:37:50;9.16;86.92
68109;SHT30;54893;49.864;19.084;2024-02-26T19:42:51;8.96;87.28
68109;SHT30;54893;49.864;19.084;2024-02-26T19:47:51;8.93;86.82
68109;SHT30;54893;49.864;19.084;2024-02-26T19:52:52;8.77;87.34
68109;SHT30;54893;49.864;19.084;2024-02-26T19:57:52;8.60;87.90
68109;SHT30;54893;49.864;19.084;2024-02-26T20:02:53;8.08;89.61
68109;SHT30;54893;49.864;19.084;2024-02-26T20:07:54;7.75;90.69
68109;SHT30;54893;49.864;19.084;2024-02-26T20:12:54;7.83;89.69
68109;SHT30;54893;49.864;19.084;2024-02-26T20:17:58;7.95;90.64
68109;SHT30;54893;49.864;19.084;2024-02-26T20:22:58;7.90;91.23
68109;SHT30;54893;49.864;19.084;2024-02-26T20:27:59;7.84;87.22
68109;SHT30;54893;49.864;19.084;2024-02-26T20:32:59;7.64;89.63
68109;SHT30;54893;49.864;19.084;2024-02-26T20:37:59;7.56;90.10
68109;SHT30;54893;49.864;19.084;2024-02-26T20:43:00;7.64;89.68
68109;SHT30;54893;49.864;19.084;2024-02-26T20:48:02;7.63;90.43
68109;SHT30;54893;49.864;19.084;2024-02-26T20:53:02;7.54;90.35
68109;SHT30;54893;49.864;19.084;2024-02-26T20:58:03;7.67;87.60
68109;SHT30;54893;49.864;19.084;2024-02-26T21:03:03;7.51;87.80
68109;SHT30;54893;49.864;19.084;2024-02-26T21:08:09;7.33;90.72
68109;SHT30;54893;49.864;19.084;2024-02-26T21:13:09;7.36;91.34
68109;SHT30;54893;49.864;19.084;2024-02-26T21:18:10;7.39;91.59
68109;SHT30;54893;49.864;19.084;2024-02-26T21:23:10;7.22;90.57
68109;SHT30;54893;49.864;19.084;2024-02-26T21:28:12;7.29;92.00
68109;SHT30;54893;49.864;19.084;2024-02-26T21:33:13;7.31;91.00
68109;SHT30;54893;49.864;19.084;2024-02-26T21:38:13;7.12;91.65
68109;SHT30;54893;49.864;19.084;2024-02-26T21:43:13;7.43;91.36
68109;SHT30;54893;49.864;19.084;2024-02-26T21:48:14;7.78;87.37
68109;SHT30;54893;49.864;19.084;2024-02-26T21:53:14;7.34;90.63
68109;SHT30;54893;49.864;19.084;2024-02-26T21:58:15;6.86;92.15
68109;SHT30;54893;49.864;19.084;2024-02-26T22:03:15;6.61;94.35
68109;SHT30;54893;49.864;19.084;2024-02-26T22:08:16;6.59;93.24
68109;SHT30;54893;49.864;19.084;2024-02-26T22:13:17;6.72;94.35
68109;SHT30;54893;49.864;19.084;2024-02-26T22:18:17;6.65;91.58
68109;SHT30;54893;49.864;19.084;2024-02-26T22:23:19;6.48;93.36
68109;SHT30;54893;49.864;19.084;2024-02-26T22:28:19;6.18;94.16
68109;SHT30;54893;49.864;19.084;2024-02-26T22:33:20;6.20;92.53
68109;SHT30;54893;49.864;19.084;2024-02-26T22:38:20;6.35;94.21
68109;SHT30;54893;49.864;19.084;2024-02-26T22:43:21;6.49;94.71
68109;SHT30;54893;49.864;19.084;2024-02-26T22:48:21;6.76;94.24
68109;SHT30;54893;49.864;19.084;2024-02-26T22:53:22;6.76;93.94
68109;SHT30;54893;49.864;19.084;2024-02-26T22:58:22;6.27;94.46
68109;SHT30;54893;49.864;19.084;2024-02-26T23:03:23;6.49;92.54
68109;SHT30;54893;49.864;19.084;2024-02-26T23:08:23;6.67;95.27
68109;SHT30;54893;49.864;19.084;2024-02-26T23:13:23;6.52;93.71
68109;SHT30;54893;49.864;19.084;2024-02-26T23:18:24;6.34;95.64
68109;SHT30;54893;49.864;19.084;2024-02-26T23:23:24;6.37;95.13
68109;SHT30;54893;49.864;19.084;2024-02-26T23:28:25;6.39;93.68
68109;SHT30;54893;49.864;19.084;2024-02-26T23:33:25;6.55;95.29
68109;SHT30;54893;49.864;19.084;2024-02-26T23:38:25;6.61;94.90
68109;SHT30;54893;49.864;19.084;2024-02-26T23:43:26;6.97;93.28
68109;SHT30;54893;49.864;19.084;2024-02-26T23:48:26;7.16;92.43
68109;SHT30;54893;49.864;19.084;2024-02-26T23:53:27;7.13;91.02
68109;SHT30;54893;49.864;19.084;2024-02-26T23:58:27;7.27;91.31
